Time;durP1;ratioP1;P1;durP2;ratioP2;P2;SDS_P1;SDS_P2;PMS_P1;PMS_P2;Temp;Humidity;BMP_temperature;BMP_pressure;BME280_temperature;BME280_humidity;BME280_pressure;Samples;Min_cycle;Max_cycle;Signal;HPM_P1;HPM_P2
2022/02/25 00:01:06;;;;;;;6.35;2.25;;;3.70;99.90;;;;;;4954394;28;20051;-70
2022/02/25 00:03:33;;;;;;;9.23;3.42;;;3.70;99.40;;;;;;4948418;28;20051;-68
2022/02/25 00:06:03;;;;;;;9.63;2.25;;;3.70;99.20;;;;;;4938135;29;20047;-69
2022/02/25 00:08:30;;;;;;;8.48;2.80;;;3.70;99.40;;;;;;4948130;28;20047;-69
2022/02/25 00:10:57;;;;;;;7.82;2.40;;;3.70;99.10;;;;;;4941659;28;20040;-69
2022/02/25 00:13:24;;;;;;;10.52;2.75;;;3.70;99.50;;;;;;4987555;28;20053;-69
2022/02/25 00:15:51;;;;;;;10.25;2.95;;;3.70;99.70;;;;;;4959001;28;20410;-69
2022/02/25 00:18:18;;;;;;;8.90;2.60;;;3.60;99.90;;;;;;4961383;28;20087;-68
2022/02/25 00:20:46;;;;;;;9.27;3.03;;;3.60;99.90;;;;;;4961159;28;20406;-68
2022/02/25 00:23:13;;;;;;;9.20;3.05;;;3.60;99.90;;;;;;4969036;28;20055;-69
2022/02/25 00:25:49;;;;;;;7.20;2.58;;;3.60;99.90;;;;;;4958741;28;20389;-70
2022/02/25 00:28:22;;;;;;;9.20;3.72;;;3.50;99.90;;;;;;4963398;28;20054;-69
2022/02/25 00:30:50;;;;;;;11.45;2.70;;;3.60;99.90;;;;;;4959126;28;20051;-70
2022/02/25 00:33:17;;;;;;;8.20;2.30;;;3.60;99.90;;;;;;4984640;28;20050;-69
2022/02/25 00:35:44;;;;;;;9.05;3.58;;;3.60;99.90;;;;;;4970519;28;20058;-69
2022/02/25 00:38:11;;;;;;;10.23;3.25;;;3.60;99.90;;;;;;4956434;28;20045;-69
2022/02/25 00:40:39;;;;;;;8.90;3.40;;;3.60;99.90;;;;;;4965295;28;20051;-69
2022/02/25 00:43:06;;;;;;;14.00;3.78;;;3.60;99.90;;;;;;4966955;28;20407;-69
2022/02/25 00:45:33;;;;;;;8.70;2.33;;;3.60;99.90;;;;;;4959112;28;20038;-69
2022/02/25 00:48:00;;;;;;;8.48;3.35;;;3.60;99.90;;;;;;4957413;28;20066;-69
2022/02/25 00:50:27;;;;;;;14.80;3.25;;;3.60;99.90;;;;;;4951860;29;20054;-69
2022/02/25 00:52:55;;;;;;;9.98;2.63;;;3.60;99.90;;;;;;4967116;28;20925;-69
2022/02/25 00:55:23;;;;;;;6.70;2.15;;;3.60;99.90;;;;;;4972544;28;20089;-69
2022/02/25 00:57:50;;;;;;;8.85;2.35;;;3.60;99.90;;;;;;4971779;28;20051;-71
2022/02/25 01:00:20;;;;;;;8.25;2.20;;;3.60;99.90;;;;;;4957865;28;20051;-70
2022/02/25 01:02:47;;;;;;;11.48;2.50;;;3.70;99.90;;;;;;4962714;28;20483;-69
2022/02/25 01:05:15;;;;;;;9.55;2.80;;;3.70;99.90;;;;;;4963333;28;20062;-69
2022/02/25 01:07:43;;;;;;;5.57;2.33;;;3.80;99.90;;;;;;4969965;28;20051;-69
2022/02/25 01:10:11;;;;;;;14.07;3.05;;;3.80;99.90;;;;;;4965767;28;20078;-71
2022/02/25 01:12:38;;;;;;;7.35;2.88;;;3.80;99.90;;;;;;4942422;28;20137;-69
2022/02/25 01:15:06;;;;;;;9.57;2.97;;;3.80;99.90;;;;;;4958158;28;20411;-69
2022/02/25 01:17:33;;;;;;;11.75;4.63;;;3.80;99.90;;;;;;4966241;28;20143;-69
2022/02/25 01:20:04;;;;;;;11.68;3.15;;;3.80;99.90;;;;;;4971022;28;20055;-69
2022/02/25 01:22:31;;;;;;;11.85;4.05;;;3.90;99.90;;;;;;4958553;28;20146;-69
2022/02/25 01:24:58;;;;;;;16.05;3.60;;;3.90;99.90;;;;;;4967110;28;20411;-69
2022/02/25 01:27:25;;;;;;;9.32;3.55;;;3.90;99.90;;;;;;4959609;28;20051;-69
2022/02/25 01:29:52;;;;;;;10.15;2.65;;;3.90;99.90;;;;;;4953814;28;20057;-69
2022/02/25 01:32:19;;;;;;;10.43;2.13;;;3.90;99.90;;;;;;4966698;28;20050;-70
2022/02/25 01:34:46;;;;;;;13.13;4.20;;;3.90;99.90;;;;;;4963885;28;20463;-69
2022/02/25 01:37:13;;;;;;;11.05;3.17;;;3.90;99.90;;;;;;4965939;28;20487;-69
2022/02/25 01:39:42;;;;;;;11.73;2.60;;;3.90;99.90;;;;;;4971671;28;20055;-70
2022/02/25 01:42:08;;;;;;;12.52;2.63;;;4.00;99.90;;;;;;4959736;28;20061;-69
2022/02/25 01:44:40;;;;;;;17.98;4.13;;;3.90;99.90;;;;;;4984087;28;20130;-70
2022/02/25 01:47:11;;;;;;;9.07;2.30;;;3.90;99.90;;;;;;4953236;28;20054;-69
2022/02/25 01:49:38;;;;;;;11.60;3.55;;;3.90;99.90;;;;;;4951752;28;20078;-69
2022/02/25 01:52:07;;;;;;;13.40;2.47;;;3.90;99.90;;;;;;4956245;28;20050;-69
2022/02/25 01:54:34;;;;;;;11.55;2.75;;;3.90;99.90;;;;;;4957454;28;20057;-71
2022/02/25 01:57:01;;;;;;;10.07;3.75;;;4.00;99.90;;;;;;4967661;28;20055;-69
2022/02/25 01:59:29;;;;;;;10.68;3.22;;;3.90;99.90;;;;;;4967890;28;20399;-69
2022/02/25 02:01:56;;;;;;;14.48;3.92;;;4.00;99.90;;;;;;4983314;28;20138;-69
2022/02/25 02:04:24;;;;;;;8.32;2.53;;;4.00;99.90;;;;;;4952777;28;20055;-69
2022/02/25 02:06:51;;;;;;;17.25;4.60;;;4.10;99.90;;;;;;4952324;28;20086;-69
2022/02/25 02:09:19;;;;;;;13.73;3.10;;;4.10;99.90;;;;;;4969056;28;20487;-69
2022/02/25 02:11:48;;;;;;;13.35;4.57;;;4.10;99.90;;;;;;4962254;28;20047;-69
2022/02/25 02:14:18;;;;;;;10.90;2.72;;;4.10;99.90;;;;;;4954229;28;20047;-69
2022/02/25 02:16:46;;;;;;;13.75;4.15;;;4.20;99.90;;;;;;4983595;28;20082;-69
2022/02/25 02:19:13;;;;;;;12.90;3.35;;;4.20;99.90;;;;;;4939783;28;20043;-69
2022/02/25 02:21:42;;;;;;;7.07;2.85;;;4.20;99.90;;;;;;4956915;28;20058;-69
2022/02/25 02:24:10;;;;;;;10.98;3.22;;;4.20;99.90;;;;;;4982276;28;20134;-69
2022/02/25 02:26:37;;;;;;;13.00;3.28;;;4.10;99.90;;;;;;4952404;28;20868;-69
2022/02/25 02:29:06;;;;;;;14.60;2.85;;;4.10;99.90;;;;;;4982598;28;20094;-69
2022/02/25 02:31:33;;;;;;;11.32;3.35;;;4.10;99.90;;;;;;4968134;28;20077;-70
2022/02/25 02:34:00;;;;;;;10.35;3.13;;;4.00;99.90;;;;;;4964755;28;20043;-69
2022/02/25 02:36:29;;;;;;;18.23;4.32;;;4.00;99.90;;;;;;4967042;28;20069;-69
2022/02/25 02:38:59;;;;;;;14.18;4.03;;;4.00;99.90;;;;;;4970848;28;20055;-68
2022/02/25 02:41:26;;;;;;;12.38;4.35;;;4.00;99.90;;;;;;4956091;28;20480;-68
2022/02/25 02:43:53;;;;;;;11.50;2.53;;;4.00;99.90;;;;;;4950955;29;20110;-71
2022/02/25 02:46:22;;;;;;;12.63;3.38;;;4.00;99.90;;;;;;4984291;28;20130;-69
2022/02/25 02:48:49;;;;;;;10.88;2.45;;;4.00;99.90;;;;;;4954629;28;20051;-68
2022/02/25 02:51:16;;;;;;;16.48;2.85;;;4.00;99.90;;;;;;4942240;29;20047;-69
2022/02/25 02:53:42;;;;;;;19.00;5.57;;;4.00;99.90;;;;;;4983018;28;20422;-69
2022/02/25 02:56:10;;;;;;;11.57;2.75;;;4.00;99.90;;;;;;4983284;28;20123;-68
2022/02/25 02:58:37;;;;;;;13.48;3.83;;;3.90;99.90;;;;;;4967281;28;20051;-69
2022/02/25 03:01:05;;;;;;;14.10;4.25;;;3.90;99.90;;;;;;4968068;28;20051;-68
2022/02/25 03:03:32;;;;;;;12.07;2.97;;;3.90;99.90;;;;;;4933891;29;20404;-70
2022/02/25 03:05:59;;;;;;;12.30;3.25;;;3.90;99.90;;;;;;4981328;28;20051;-70
2022/02/25 03:08:26;;;;;;;10.68;2.58;;;3.90;99.90;;;;;;4942104;28;20053;-68
2022/02/25 03:10:53;;;;;;;27.13;5.30;;;3.80;99.90;;;;;;4950660;29;20051;-67
2022/02/25 03:13:21;;;;;;;13.57;3.35;;;3.80;99.90;;;;;;4965893;28;20043;-68
2022/02/25 03:15:48;;;;;;;11.15;2.83;;;3.80;99.90;;;;;;4955554;28;20066;-68
2022/02/25 03:18:15;;;;;;;10.50;3.63;;;3.80;99.90;;;;;;4952471;28;20055;-68
2022/02/25 03:20:43;;;;;;;11.80;3.10;;;3.70;99.90;;;;;;4959995;28;20046;-68
2022/02/25 03:23:10;;;;;;;9.73;3.65;;;3.70;99.90;;;;;;4960897;28;20051;-67
2022/02/25 03:25:37;;;;;;;13.60;4.20;;;3.70;99.90;;;;;;4957532;28;20510;-68
2022/02/25 03:28:04;;;;;;;11.30;3.42;;;3.70;99.90;;;;;;4967203;28;20057;-69
2022/02/25 03:30:33;;;;;;;11.40;3.50;;;3.70;99.90;;;;;;4954986;28;20051;-68
2022/02/25 03:33:00;;;;;;;15.57;3.40;;;3.70;99.90;;;;;;4953986;28;20126;-67
2022/02/25 03:35:27;;;;;;;18.00;3.83;;;3.60;99.90;;;;;;4969233;28;20110;-68
2022/02/25 03:37:54;;;;;;;12.95;3.75;;;3.60;99.90;;;;;;4959269;28;20054;-67
2022/02/25 03:40:21;;;;;;;8.32;3.25;;;3.60;99.90;;;;;;4967506;28;20132;-68
2022/02/25 03:42:48;;;;;;;10.25;2.95;;;3.60;99.90;;;;;;4956033;29;20060;-68
2022/02/25 03:45:17;;;;;;;12.55;4.55;;;3.50;99.90;;;;;;4955732;29;20055;-67
2022/02/25 03:47:44;;;;;;;10.98;4.60;;;3.50;99.90;;;;;;4968682;28;20057;-67
2022/02/25 03:50:11;;;;;;;13.30;3.45;;;3.50;99.90;;;;;;4962924;28;20055;-69
2022/02/25 03:52:38;;;;;;;11.50;3.60;;;3.50;99.90;;;;;;4957817;28;20061;-67
2022/02/25 03:55:06;;;;;;;10.77;3.33;;;3.50;99.90;;;;;;4958350;28;20051;-69
2022/02/25 03:57:33;;;;;;;13.15;3.47;;;3.50;99.90;;;;;;4954346;28;20047;-68
2022/02/25 04:00:00;;;;;;;14.10;3.65;;;3.50;99.90;;;;;;4958547;28;20057;-68
2022/02/25 04:02:28;;;;;;;11.15;2.92;;;3.50;99.90;;;;;;4948622;28;20051;-68
2022/02/25 04:04:55;;;;;;;10.55;3.72;;;3.50;99.90;;;;;;4959037;28;20420;-69
2022/02/25 04:07:24;;;;;;;10.63;3.57;;;3.50;99.90;;;;;;4959994;28;20050;-68
2022/02/25 04:09:51;;;;;;;16.02;3.92;;;3.50;99.90;;;;;;4959126;28;20057;-68
2022/02/25 04:12:19;;;;;;;11.90;4.47;;;3.50;99.90;;;;;;4958351;28;20487;-67
2022/02/25 04:14:46;;;;;;;10.30;3.40;;;3.50;99.90;;;;;;4945232;29;20551;-68
2022/02/25 04:17:18;;;;;;;12.05;3.75;;;3.50;99.90;;;;;;4970310;28;20125;-68
2022/02/25 04:19:48;;;;;;;13.10;3.33;;;3.60;99.90;;;;;;4941566;29;20063;-69
2022/02/25 04:22:17;;;;;;;13.32;3.55;;;3.60;99.90;;;;;;4969686;28;20410;-67
2022/02/25 04:24:45;;;;;;;11.65;2.83;;;3.60;99.90;;;;;;4970633;28;20130;-68
2022/02/25 04:27:12;;;;;;;8.65;3.47;;;3.60;99.90;;;;;;4956958;28;20059;-67
2022/02/25 04:29:41;;;;;;;9.15;3.20;;;3.60;99.90;;;;;;4964695;28;20058;-68
2022/02/25 04:32:08;;;;;;;10.40;3.75;;;3.60;99.90;;;;;;4971233;28;20053;-68
2022/02/25 04:34:35;;;;;;;14.70;4.93;;;3.60;99.90;;;;;;4953210;28;20050;-68
2022/02/25 04:37:02;;;;;;;16.90;4.70;;;3.60;99.90;;;;;;4961979;28;20499;-68
2022/02/25 04:39:29;;;;;;;11.98;4.20;;;3.60;99.90;;;;;;4957687;28;20053;-68
2022/02/25 04:41:56;;;;;;;12.13;3.85;;;3.60;99.90;;;;;;4986498;28;20484;-68
2022/02/25 04:44:24;;;;;;;14.43;4.35;;;3.60;99.90;;;;;;4957520;28;20043;-68
2022/02/25 04:46:51;;;;;;;9.00;3.00;;;3.70;99.90;;;;;;4968011;28;20082;-68
2022/02/25 04:49:18;;;;;;;13.45;3.38;;;3.60;99.90;;;;;;4973201;28;20054;-69
2022/02/25 04:51:45;;;;;;;11.32;3.55;;;3.60;99.90;;;;;;4967982;28;20094;-68
2022/02/25 04:54:15;;;;;;;18.00;3.80;;;3.60;99.90;;;;;;4970005;28;20043;-68
2022/02/25 04:56:42;;;;;;;9.98;2.78;;;3.60;99.90;;;;;;4972762;28;20383;-68
2022/02/25 04:59:09;;;;;;;15.15;3.35;;;3.60;99.90;;;;;;4970105;28;20520;-68
2022/02/25 05:01:36;;;;;;;9.52;2.85;;;3.60;99.90;;;;;;4959884;28;20443;-68
2022/02/25 05:04:03;;;;;;;11.50;3.30;;;3.50;99.90;;;;;;4966699;28;20086;-67
2022/02/25 05:06:30;;;;;;;14.30;4.00;;;3.50;99.90;;;;;;4949330;29;20047;-68
2022/02/25 05:08:57;;;;;;;12.23;3.67;;;3.50;99.90;;;;;;4950717;28;20063;-67
2022/02/25 05:11:24;;;;;;;12.13;3.47;;;3.50;99.90;;;;;;4970019;28;20928;-67
2022/02/25 05:13:51;;;;;;;10.70;2.78;;;3.50;99.90;;;;;;4968448;28;20061;-68
2022/02/25 05:21:50;;;;;;;17.13;3.92;;;3.40;99.90;;;;;;4960702;28;20054;-68
2022/02/25 05:24:17;;;;;;;10.57;3.28;;;3.40;99.90;;;;;;4954755;28;20047;-68
2022/02/25 05:26:44;;;;;;;11.77;3.65;;;3.40;99.90;;;;;;4948541;29;20063;-71
2022/02/25 05:29:11;;;;;;;18.15;3.65;;;3.40;99.90;;;;;;4958090;28;20050;-69
2022/02/25 05:31:38;;;;;;;12.30;4.43;;;3.40;99.90;;;;;;4970546;28;20078;-68
2022/02/25 05:34:05;;;;;;;11.98;3.10;;;3.40;99.90;;;;;;4963546;28;20109;-68
2022/02/25 05:36:33;;;;;;;16.85;4.28;;;3.30;99.90;;;;;;4964467;28;20058;-68
2022/02/25 05:39:00;;;;;;;10.13;3.00;;;3.30;99.90;;;;;;4969332;28;20130;-69
2022/02/25 05:41:28;;;;;;;14.52;3.28;;;3.30;99.90;;;;;;4947264;28;20062;-68
2022/02/25 05:43:55;;;;;;;13.88;3.60;;;3.30;99.90;;;;;;4971078;28;20138;-67
2022/02/25 05:46:22;;;;;;;12.15;2.92;;;3.30;99.90;;;;;;4963113;28;20050;-67
2022/02/25 05:48:52;;;;;;;18.27;3.85;;;3.30;99.90;;;;;;4958663;28;20487;-68
2022/02/25 05:51:19;;;;;;;16.25;5.22;;;3.20;99.90;;;;;;4968566;28;20398;-68
2022/02/25 05:53:46;;;;;;;12.55;3.60;;;3.20;99.90;;;;;;4984986;28;20057;-68
2022/02/25 05:56:13;;;;;;;14.93;3.50;;;3.20;99.90;;;;;;4969260;28;20506;-68
2022/02/25 05:58:41;;;;;;;11.18;3.00;;;3.20;99.90;;;;;;4964132;28;20062;-68
2022/02/25 06:01:08;;;;;;;12.55;3.15;;;3.20;99.90;;;;;;4962596;28;20466;-68
2022/02/25 06:03:35;;;;;;;10.15;3.13;;;3.30;99.90;;;;;;4955530;28;20054;-68
2022/02/25 06:06:02;;;;;;;13.93;4.43;;;3.30;99.90;;;;;;4958653;28;20054;-68
2022/02/25 06:08:29;;;;;;;12.00;3.15;;;3.30;99.90;;;;;;4963864;28;20049;-67
2022/02/25 06:10:57;;;;;;;15.63;3.03;;;3.30;99.90;;;;;;4945846;28;20476;-68
2022/02/25 06:13:24;;;;;;;8.57;2.80;;;3.20;99.90;;;;;;4954821;28;20129;-70
2022/02/25 06:15:52;;;;;;;14.75;3.47;;;3.20;99.90;;;;;;4971084;28;20401;-67
2022/02/25 06:18:19;;;;;;;9.90;2.80;;;3.20;99.90;;;;;;4972010;28;20490;-68
2022/02/25 06:20:46;;;;;;;8.57;3.40;;;3.20;99.90;;;;;;4967524;28;20051;-68
2022/02/25 06:23:13;;;;;;;15.32;4.30;;;3.20;99.90;;;;;;4939908;28;20047;-68
2022/02/25 06:25:40;;;;;;;11.88;2.63;;;3.20;99.90;;;;;;4955222;28;20074;-68
2022/02/25 06:28:07;;;;;;;15.43;3.60;;;3.20;99.90;;;;;;4967810;28;20042;-68
2022/02/25 06:30:35;;;;;;;7.28;3.17;;;3.20;99.90;;;;;;4968983;28;20558;-68
2022/02/25 06:33:03;;;;;;;13.02;3.22;;;3.20;99.90;;;;;;4939819;28;20050;-68
2022/02/25 06:35:30;;;;;;;10.88;3.10;;;3.20;99.90;;;;;;4955162;28;20083;-68
2022/02/25 06:37:57;;;;;;;13.18;3.05;;;3.20;99.90;;;;;;4961980;28;20050;-68
2022/02/25 06:40:25;;;;;;;16.67;5.40;;;3.20;99.90;;;;;;4962574;28;20098;-69
2022/02/25 06:42:53;;;;;;;14.30;3.08;;;3.20;99.90;;;;;;4965748;28;20160;-68
2022/02/25 06:45:21;;;;;;;11.30;2.90;;;3.20;99.90;;;;;;4954166;28;20122;-68
2022/02/25 06:47:48;;;;;;;11.85;3.10;;;3.20;99.90;;;;;;4953049;28;20044;-68
2022/02/25 06:50:15;;;;;;;12.75;3.60;;;3.20;99.90;;;;;;4941226;28;20047;-69
2022/02/25 06:52:45;;;;;;;15.27;3.20;;;3.20;99.90;;;;;;4929762;28;20483;-68
2022/02/25 06:55:13;;;;;;;14.45;3.85;;;3.30;99.90;;;;;;4964645;28;20061;-69
2022/02/25 06:58:00;;;;;;;11.43;2.92;;;3.30;99.90;;;;;;4961461;28;20130;-68
2022/02/25 07:00:27;;;;;;;11.63;3.33;;;3.20;99.90;;;;;;4962087;28;20458;-68
2022/02/25 07:02:54;;;;;;;15.88;5.18;;;3.20;99.90;;;;;;4927759;28;20059;-70
2022/02/25 07:05:21;;;;;;;11.20;3.30;;;3.20;99.90;;;;;;4966489;28;20047;-68
2022/02/25 07:07:48;;;;;;;7.40;2.90;;;3.30;99.90;;;;;;4966113;28;20047;-68
2022/02/25 07:10:16;;;;;;;13.57;6.07;;;3.30;99.90;;;;;;4965821;28;20403;-68
2022/02/25 07:12:44;;;;;;;18.25;5.28;;;3.30;99.90;;;;;;4946895;28;20426;-72
2022/02/25 07:15:14;;;;;;;317.30;199.68;;;3.30;99.90;;;;;;4959523;28;20063;-67
2022/02/25 07:17:41;;;;;;;60.58;32.97;;;3.40;99.90;;;;;;4987872;28;20388;-69
2022/02/25 07:20:08;;;;;;;27.20;14.60;;;3.40;99.90;;;;;;4971153;28;20047;-68
2022/02/25 07:22:46;;;;;;;22.70;10.75;;;3.40;99.90;;;;;;4928620;28;20066;-69
2022/02/25 07:25:14;;;;;;;22.05;8.15;;;3.40;99.90;;;;;;4952447;28;20063;-68
2022/02/25 07:27:41;;;;;;;13.30;4.40;;;3.40;99.90;;;;;;4961316;28;20390;-69
2022/02/25 07:30:09;;;;;;;13.50;4.15;;;3.40;99.90;;;;;;4957841;28;20055;-68
2022/02/25 07:32:36;;;;;;;12.25;4.13;;;3.40;99.90;;;;;;4968569;28;20129;-67
2022/02/25 07:35:04;;;;;;;15.88;4.22;;;3.40;99.90;;;;;;4959106;28;20689;-69
2022/02/25 07:37:31;;;;;;;15.90;3.70;;;3.50;99.90;;;;;;4961114;28;20058;-67
2022/02/25 07:39:58;;;;;;;201.27;135.15;;;3.50;99.90;;;;;;4973499;28;20466;-68
2022/02/25 07:42:26;;;;;;;47.00;22.73;;;3.50;99.90;;;;;;4927823;28;20047;-68
2022/02/25 07:44:53;;;;;;;19.08;11.60;;;3.50;99.90;;;;;;4957205;28;20051;-68
2022/02/25 07:47:24;;;;;;;16.55;5.90;;;3.60;99.90;;;;;;4956882;28;20067;-70
2022/02/25 07:49:52;;;;;;;15.13;5.00;;;3.60;99.90;;;;;;4982476;28;20058;-70
2022/02/25 07:52:21;;;;;;;14.43;5.23;;;3.60;99.90;;;;;;4956079;28;20098;-67
2022/02/25 07:54:49;;;;;;;15.18;5.80;;;3.60;99.90;;;;;;4987202;28;20454;-66
2022/02/25 07:57:18;;;;;;;10.50;3.45;;;3.60;99.90;;;;;;4969823;28;20414;-67
2022/02/25 08:00:06;;;;;;;7.10;2.55;;;3.70;99.90;;;;;;4942450;29;20420;-68
2022/02/25 08:02:34;;;;;;;18.58;4.28;;;3.70;99.90;;;;;;4954611;28;20134;-69
2022/02/25 08:05:01;;;;;;;14.90;4.03;;;3.70;99.90;;;;;;4970209;28;20475;-67
2022/02/25 08:07:32;;;;;;;11.82;4.63;;;3.70;99.90;;;;;;4954374;29;20047;-70
2022/02/25 08:09:59;;;;;;;10.20;3.83;;;3.80;99.90;;;;;;4956697;28;20047;-67
2022/02/25 08:12:31;;;;;;;13.05;3.85;;;3.80;99.90;;;;;;4956221;28;20134;-67
2022/02/25 08:14:58;;;;;;;13.35;4.03;;;3.90;99.90;;;;;;4986639;28;20394;-70
2022/02/25 08:17:25;;;;;;;12.30;4.55;;;3.90;99.90;;;;;;4965840;28;20058;-75
2022/02/25 08:19:52;;;;;;;8.63;3.40;;;4.00;99.90;;;;;;4971920;28;20054;-78
2022/02/25 08:22:22;;;;;;;9.70;3.10;;;4.00;99.90;;;;;;4970792;28;20048;-74
2022/02/25 08:24:50;;;;;;;14.20;4.20;;;4.10;99.90;;;;;;4955140;29;20406;-72
2022/02/25 08:27:17;;;;;;;17.23;4.30;;;4.10;99.90;;;;;;4954788;29;20078;-73
2022/02/25 08:29:44;;;;;;;14.32;3.50;;;4.20;99.90;;;;;;4954650;29;20063;-71
2022/02/25 08:32:12;;;;;;;18.65;4.20;;;4.20;99.90;;;;;;4956525;28;20054;-73
2022/02/25 08:34:39;;;;;;;15.60;4.07;;;4.30;99.90;;;;;;4954555;28;20074;-74
2022/02/25 08:37:10;;;;;;;17.48;4.45;;;4.30;99.90;;;;;;4950870;29;20051;-72
2022/02/25 08:39:37;;;;;;;18.15;4.72;;;4.40;99.90;;;;;;4986497;28;20138;-71
2022/02/25 08:42:04;;;;;;;13.63;4.13;;;4.40;99.90;;;;;;4954552;29;20126;-71
2022/02/25 08:44:33;;;;;;;13.40;4.47;;;4.50;99.90;;;;;;4938147;29;20067;-74
2022/02/25 08:47:07;;;;;;;122.88;71.45;;;4.50;99.90;;;;;;4954362;29;20645;-73
2022/02/25 08:49:38;;;;;;;32.65;18.45;;;4.60;99.90;;;;;;4969453;28;20499;-70
2022/02/25 08:52:09;;;;;;;16.85;6.57;;;4.70;99.90;;;;;;4957275;28;20127;-72
2022/02/25 08:54:40;;;;;;;11.90;4.35;;;4.70;99.90;;;;;;4951046;29;20102;-69
2022/02/25 08:57:07;;;;;;;10.88;3.95;;;4.80;99.90;;;;;;4953601;29;20055;-68
2022/02/25 08:59:37;;;;;;;17.23;3.78;;;4.80;99.90;;;;;;4953311;29;20051;-71
2022/02/25 09:02:06;;;;;;;;;;;4.80;99.90;;;;;;4953713;29;20055;-70
2022/02/25 09:04:34;;;;;;;9.98;3.42;;;4.90;99.90;;;;;;4969132;28;19923;-70
2022/02/25 09:07:01;;;;;;;14.98;3.45;;;4.90;99.90;;;;;;4954562;29;20476;-70
2022/02/25 09:09:28;;;;;;;13.20;3.33;;;5.00;99.90;;;;;;4953763;29;20047;-70
2022/02/25 09:11:57;;;;;;;10.20;2.78;;;5.10;99.90;;;;;;4953798;29;20054;-70
2022/02/25 09:14:26;;;;;;;14.25;5.25;;;5.10;99.90;;;;;;4969162;28;20132;-70
2022/02/25 09:16:53;;;;;;;19.17;4.35;;;5.10;99.90;;;;;;4954519;28;20482;-70
2022/02/25 09:19:20;;;;;;;17.08;3.75;;;5.20;99.90;;;;;;4984954;28;20047;-70
2022/02/25 09:21:47;;;;;;;13.60;3.90;;;5.30;99.90;;;;;;4953011;29;20065;-70
2022/02/25 09:24:14;;;;;;;16.38;4.90;;;5.30;99.90;;;;;;4953385;29;20051;-70
2022/02/25 09:26:42;;;;;;;12.23;4.47;;;5.30;99.90;;;;;;4937928;29;20062;-70
2022/02/25 09:29:09;;;;;;;18.98;7.50;;;5.40;99.90;;;;;;4952552;29;20487;-66
2022/02/25 09:31:36;;;;;;;76.30;42.38;;;5.40;99.90;;;;;;4985320;28;20073;-68
2022/02/25 09:34:04;;;;;;;21.45;8.75;;;5.70;99.90;;;;;;4953916;29;20126;-69
2022/02/25 09:36:34;;;;;;;12.07;5.37;;;5.70;99.90;;;;;;4953745;29;20050;-68
2022/02/25 09:39:03;;;;;;;12.63;5.45;;;5.70;99.90;;;;;;4968834;28;20043;-69
2022/02/25 09:41:31;;;;;;;16.48;4.80;;;5.80;99.90;;;;;;4984880;28;20055;-68
2022/02/25 09:44:00;;;;;;;8.95;3.22;;;5.80;99.90;;;;;;4983723;28;20043;-68
2022/02/25 09:46:27;;;;;;;13.23;4.38;;;5.90;99.90;;;;;;4952377;29;20083;-68
2022/02/25 09:48:54;;;;;;;9.02;2.90;;;5.90;99.90;;;;;;4984882;28;20055;-68
2022/02/25 09:51:21;;;;;;;8.98;3.42;;;5.90;99.90;;;;;;4953817;29;20089;-68
2022/02/25 09:53:48;;;;;;;11.68;3.42;;;5.90;99.90;;;;;;4984787;28;20055;-69
2022/02/25 09:56:15;;;;;;;14.55;3.65;;;6.00;99.90;;;;;;4984942;28;20122;-69
2022/02/25 09:58:42;;;;;;;12.90;3.72;;;6.10;99.90;;;;;;4936819;29;20130;-78
2022/02/25 10:01:12;;;;;;;14.43;3.72;;;6.20;99.90;;;;;;4953955;28;20039;-68
2022/02/25 10:03:40;;;;;;;12.43;3.20;;;6.30;99.90;;;;;;4967699;28;20089;-73
2022/02/25 10:06:09;;;;;;;18.33;4.25;;;6.30;99.90;;;;;;4950044;29;20059;-68
2022/02/25 10:08:36;;;;;;;11.52;3.63;;;6.30;99.60;;;;;;4984381;28;20491;-68
2022/02/25 10:11:04;;;;;;;19.42;4.95;;;6.40;99.90;;;;;;4952647;29;20047;-68
2022/02/25 10:13:32;;;;;;;16.17;3.72;;;6.40;99.70;;;;;;4968331;28;20447;-70
2022/02/25 10:16:20;;;;;;;16.40;3.83;;;6.50;98.30;;;;;;4966012;28;20138;-68
2022/02/25 10:18:47;;;;;;;32.17;19.70;;;6.60;98.70;;;;;;4969177;28;20464;-71
2022/02/25 10:21:16;;;;;;;130.57;84.32;;;6.70;97.70;;;;;;4938005;29;20051;-77
2022/02/25 10:23:44;;;;;;;21.85;10.48;;;6.80;98.30;;;;;;4934098;29;20079;-71
2022/02/25 10:26:11;;;;;;;13.43;5.07;;;6.90;95.80;;;;;;4943065;29;20083;-70
2022/02/25 10:28:40;;;;;;;16.90;3.95;;;7.10;94.50;;;;;;4953382;29;20047;-71
2022/02/25 10:31:33;;;;;;;9.23;3.13;;;7.20;93.30;;;;;;4953572;28;20089;-70
2022/02/25 10:34:12;;;;;;;27.35;5.78;;;7.30;91.90;;;;;;4949897;29;20098;-71
2022/02/25 10:36:46;;;;;;;7.47;3.58;;;7.50;91.90;;;;;;4984048;28;20051;-70
2022/02/25 10:39:24;;;;;;;15.50;4.15;;;7.60;90.80;;;;;;4953908;28;20130;-71
2022/02/25 10:42:16;;;;;;;14.45;3.42;;;7.50;91.40;;;;;;4967641;28;20062;-72
2022/02/25 10:44:49;;;;;;;11.30;4.22;;;7.60;90.90;;;;;;4951110;28;20055;-70
2022/02/25 10:47:25;;;;;;;11.07;2.75;;;7.70;90.60;;;;;;4953975;28;20054;-70
2022/02/25 10:50:12;;;;;;;17.20;3.78;;;7.70;90.00;;;;;;4952111;29;20073;-71
2022/02/25 10:52:41;;;;;;;13.65;3.95;;;7.80;90.00;;;;;;4949271;29;20054;-70
2022/02/25 10:55:16;;;;;;;12.60;2.78;;;7.90;89.80;;;;;;4948656;28;20047;-72
2022/02/25 10:57:43;;;;;;;12.65;4.18;;;7.90;89.00;;;;;;4965141;28;20047;-72
2022/02/25 11:00:11;;;;;;;16.05;4.05;;;7.90;89.00;;;;;;4965026;28;20050;-72
2022/02/25 11:02:43;;;;;;;16.27;4.30;;;8.00;90.10;;;;;;4982959;28;20142;-71
2022/02/25 11:05:19;;;;;;;10.88;2.72;;;8.00;88.00;;;;;;4967515;28;20054;-69
2022/02/25 11:07:47;;;;;;;13.13;4.13;;;8.10;86.50;;;;;;4952643;29;20047;-72
2022/02/25 11:10:16;;;;;;;22.75;12.68;;;8.20;85.20;;;;;;4984136;28;20119;-72
2022/02/25 11:12:43;;;;;;;22.48;10.73;;;8.30;85.00;;;;;;4953511;28;20051;-72
2022/02/25 11:15:14;;;;;;;18.23;4.30;;;8.40;85.20;;;;;;4952129;29;20047;-72
2022/02/25 11:17:42;;;;;;;10.63;3.30;;;8.40;83.20;;;;;;4968878;28;20103;-74
2022/02/25 11:20:12;;;;;;;10.05;3.15;;;8.40;83.40;;;;;;4968785;28;20055;-72
2022/02/25 11:22:41;;;;;;;16.95;4.05;;;8.50;83.40;;;;;;4953792;29;20431;-71
2022/02/25 11:25:14;;;;;;;14.93;3.20;;;8.50;84.00;;;;;;4953309;29;20406;-72
2022/02/25 11:27:42;;;;;;;9.93;2.67;;;8.60;82.80;;;;;;4953931;29;20066;-74
2022/02/25 11:30:33;;;;;;;8.38;3.17;;;8.70;82.60;;;;;;4984891;28;20051;-73
2022/02/25 11:33:35;;;;;;;12.57;2.90;;;8.70;82.30;;;;;;4954651;28;20075;-73
2022/02/25 11:36:09;;;;;;;9.52;2.85;;;8.60;83.00;;;;;;4917358;29;20063;-73
2022/02/25 11:38:42;;;;;;;11.75;2.53;;;8.60;82.70;;;;;;4933971;29;20047;-74
2022/02/25 11:41:16;;;;;;;9.48;2.83;;;8.70;82.60;;;;;;4953626;28;20051;-73
2022/02/25 11:43:51;;;;;;;11.38;2.90;;;8.70;83.10;;;;;;4950692;29;20110;-74
2022/02/25 11:46:27;;;;;;;10.63;3.20;;;8.70;83.40;;;;;;4984014;28;20399;-72
2022/02/25 11:49:13;;;;;;;7.57;2.63;;;8.70;82.30;;;;;;4956877;28;20055;-73
2022/02/25 11:51:54;;;;;;;14.52;3.92;;;8.60;81.70;;;;;;4952367;29;20055;-72
2022/02/25 11:54:21;;;;;;;10.75;3.05;;;8.70;81.80;;;;;;4966471;28;20043;-75
2022/02/25 11:57:04;;;;;;;12.05;3.13;;;8.60;81.20;;;;;;4954129;28;20047;-73
2022/02/25 11:59:34;;;;;;;15.32;4.63;;;8.60;81.40;;;;;;4956372;28;20435;-73
2022/02/25 12:02:15;;;;;;;7.47;2.40;;;8.70;80.10;;;;;;4963729;28;20093;-74
2022/02/25 12:04:46;;;;;;;9.02;2.67;;;8.70;80.30;;;;;;4939232;29;20051;-73
2022/02/25 12:07:17;;;;;;;12.57;3.22;;;8.60;81.40;;;;;;4960262;28;20451;-73
2022/02/25 12:09:45;;;;;;;8.35;3.28;;;8.60;81.70;;;;;;4937320;29;20161;-73
2022/02/25 12:12:23;;;;;;;10.90;2.70;;;8.60;79.60;;;;;;4949946;28;20053;-72
2022/02/25 12:15:17;;;;;;;7.90;2.63;;;8.70;78.90;;;;;;4941588;28;20540;-71
2022/02/25 12:17:54;;;;;;;9.98;2.83;;;8.80;77.70;;;;;;4935006;28;20123;-74
2022/02/25 12:20:34;;;;;;;12.73;3.42;;;8.90;77.70;;;;;;4961064;28;20143;-73
2022/02/25 12:23:09;;;;;;;46.78;25.42;;;9.00;78.20;;;;;;4965636;28;20057;-74
2022/02/25 12:25:39;;;;;;;14.45;6.75;;;9.10;77.50;;;;;;4989210;28;20054;-75
2022/02/25 12:28:28;;;;;;;;;;;9.10;75.70;;;;;;4974678;28;20503;-74
2022/02/25 12:31:01;;;;;;;8.30;3.40;;;9.20;74.10;;;;;;4966612;28;19928;-78
2022/02/25 12:33:42;;;;;;;6.28;2.90;;;9.30;76.00;;;;;;4956471;29;20051;-73
2022/02/25 12:36:28;;;;;;;6.03;2.00;;;9.30;73.00;;;;;;4955927;28;20067;-78
2022/02/25 12:39:06;;;;;;;8.20;2.65;;;9.40;72.60;;;;;;4963971;28;20530;-73
2022/02/25 12:41:46;;;;;;;8.00;2.88;;;9.50;71.70;;;;;;4956059;28;20065;-72
2022/02/25 12:44:22;;;;;;;7.50;1.90;;;9.60;72.30;;;;;;4956176;28;20059;-75
2022/02/25 12:46:54;;;;;;;12.07;4.03;;;9.60;71.40;;;;;;4946469;28;20082;-76
2022/02/25 12:49:24;;;;;;;10.25;3.05;;;9.60;73.00;;;;;;4945173;29;20118;-68
2022/02/25 12:51:55;;;;;;;11.70;2.70;;;9.60;73.30;;;;;;4956734;28;20062;-71
2022/02/25 12:54:24;;;;;;;11.95;3.08;;;9.60;73.50;;;;;;4955403;28;20083;-71
2022/02/25 12:56:56;;;;;;;8.95;2.70;;;9.60;74.00;;;;;;4968432;28;20047;-74
2022/02/25 12:59:45;;;;;;;10.63;2.42;;;9.60;74.40;;;;;;4984920;28;20406;-67
2022/02/25 13:02:16;;;;;;;231.18;151.82;;;9.70;71.80;;;;;;4957556;28;20091;-69
2022/02/25 13:04:53;;;;;;;15.70;6.65;;;9.70;72.90;;;;;;4963444;28;20054;-68